Time;durP1;ratioP1;P1;durP2;ratioP2;P2;SDS_P1;SDS_P2;PMS_P1;PMS_P2;Temp;Humidity;BMP_temperature;BMP_pressure;BME280_temperature;BME280_humidity;BME280_pressure;Samples;Min_cycle;Max_cycle;Signal;HPM_P1;HPM_P2
2020/12/06 13:38:01;;;;;;;13.75;5.78;;;;;;;-1.87;57.42;100965.07;1800141;77;23405;-71
2020/12/06 13:40:39;;;;;;;11.97;4.63;;;;;;;-1.83;56.88;100962.82;1761600;79;22992;-71
2020/12/06 13:43:06;;;;;;;13.87;5.47;;;;;;;-1.94;56.40;100972.19;1742000;82;21740;-69
2020/12/06 13:45:36;;;;;;;12.53;4.60;;;;;;;-1.98;56.68;100972.23;1668381;84;21892;-71
2020/12/06 13:48:04;;;;;;;11.90;5.27;;;;;;;-2.05;56.40;100971.41;1697092;84;21164;-70
2020/12/06 13:50:32;;;;;;;10.50;5.17;;;;;;;-2.08;56.13;100975.42;1688702;84;21167;-71
2020/12/06 13:52:59;;;;;;;15.67;5.37;;;;;;;-2.13;56.69;100971.94;1691031;84;21763;-66
2020/12/06 13:55:28;;;;;;;19.30;6.27;;;;;;;-2.15;57.40;100968.44;1710045;83;21170;-68
2020/12/06 13:57:56;;;;;;;14.87;5.73;;;;;;;-2.22;57.65;100968.49;1684268;85;21718;-67
2020/12/06 14:00:24;;;;;;;13.43;6.60;;;;;;;-2.32;58.08;100968.60;1696788;84;21610;-69
2020/12/06 14:02:52;;;;;;;18.10;5.33;;;;;;;-2.39;58.38;100967.33;1707572;84;21190;-65
2020/12/06 14:05:21;;;;;;;12.60;5.10;;;;;;;-2.44;58.36;100963.84;1689832;84;21154;-70
2020/12/06 14:07:50;;;;;;;11.43;5.80;;;;;;;-2.50;58.20;100968.73;1660790;84;21331;-69
2020/12/06 14:10:18;;;;;;;8.07;4.77;;;;;;;-2.55;57.90;100965.25;1696497;84;21589;-69
2020/12/06 14:12:46;;;;;;;14.83;5.70;;;;;;;-2.61;57.90;100965.73;1697827;84;21348;-68
2020/12/06 14:15:14;;;;;;;11.43;5.33;;;;;;;-2.65;57.97;100965.34;1711080;84;21300;-68
2020/12/06 14:17:41;;;;;;;12.73;4.13;;;;;;;-2.69;57.82;100968.89;1697569;84;21232;-67
2020/12/06 14:20:09;;;;;;;9.70;4.70;;;;;;;-2.75;57.69;100958.39;1690941;84;21218;-69
2020/12/06 14:22:37;;;;;;;14.57;5.37;;;;;;;-2.80;57.59;100964.12;1704871;84;21190;-69
2020/12/06 14:25:05;;;;;;;12.20;4.97;;;;;;;-2.83;57.84;100958.86;1686633;84;21784;-70
2020/12/06 14:27:32;;;;;;;11.70;4.33;;;;;;;-2.85;57.79;100967.23;1691416;84;21202;-66
2020/12/06 14:30:00;;;;;;;10.33;4.77;;;;;;;-2.87;57.87;100964.61;1712539;83;21252;-69
2020/12/06 14:32:28;;;;;;;10.50;5.03;;;;;;;-2.89;57.69;100963.75;1697483;84;21341;-68
2020/12/06 14:34:57;;;;;;;9.07;4.13;;;;;;;-2.92;57.74;100962.87;1684857;84;21372;-67
2020/12/06 14:37:25;;;;;;;8.77;4.70;;;;;;;-2.91;57.51;100963.31;1684235;84;21195;-67
2020/12/06 14:39:55;;;;;;;9.17;4.63;;;;;;;-2.93;57.35;100965.09;1676980;84;21535;-68
2020/12/06 14:42:25;;;;;;;9.90;4.83;;;;;;;-2.96;57.67;100981.81;1683886;84;21614;-68
2020/12/06 14:44:53;;;;;;;10.83;5.27;;;;;;;-3.00;56.98;100973.48;1681440;84;21171;-67
2020/12/06 14:47:20;;;;;;;12.80;4.60;;;;;;;-3.04;57.30;100977.03;1688167;84;21195;-67
2020/12/06 14:49:48;;;;;;;10.27;4.90;;;;;;;-3.08;57.59;100972.20;1679955;84;21191;-68
2020/12/06 14:52:18;;;;;;;17.70;5.80;;;;;;;-3.10;57.43;100972.64;1704479;84;21141;-67
2020/12/06 14:54:46;;;;;;;11.40;4.73;;;;;;;-3.10;57.61;100973.08;1695365;84;21168;-67
2020/12/06 14:57:15;;;;;;;12.17;5.30;;;;;;;-3.10;57.58;100969.13;1683562;84;21167;-69
2020/12/06 14:59:43;;;;;;;13.20;5.43;;;;;;;-3.14;57.74;100968.28;1698954;84;21199;-68
2020/12/06 15:02:12;;;;;;;14.37;5.30;;;;;;;-3.16;57.66;100967.41;1676222;84;21367;-68
2020/12/06 15:04:39;;;;;;;15.13;5.87;;;;;;;-3.17;57.93;100970.07;1676583;84;21167;-70
2020/12/06 15:07:07;;;;;;;12.30;5.53;;;;;;;-3.20;57.92;100961.73;1682498;84;21593;-69
2020/12/06 15:09:38;;;;;;;11.70;4.90;;;;;;;-3.22;57.95;100970.52;1694324;84;21676;-68
2020/12/06 15:12:06;;;;;;;14.93;6.13;;;;;;;-3.26;58.13;100972.31;1684203;84;21170;-65
2020/12/06 15:14:34;;;;;;;14.83;6.07;;;;;;;-3.30;58.26;100975.81;1686433;84;21590;-70
2020/12/06 15:17:03;;;;;;;14.00;5.80;;;;;;;-3.33;58.57;100978.48;1700215;84;21170;-68
2020/12/06 15:19:31;;;;;;;10.53;4.70;;;;;;;-3.33;58.81;100973.65;1699048;84;21219;-67
2020/12/06 15:22:00;;;;;;;11.50;5.53;;;;;;;-3.33;58.76;100977.61;1691591;84;21312;-68
2020/12/06 15:24:28;;;;;;;12.57;5.43;;;;;;;-3.36;58.78;100965.73;1683763;84;21557;-68
2020/12/06 15:26:56;;;;;;;14.47;5.80;;;;;;;-3.40;59.08;100967.96;1688855;84;21158;-68
2020/12/06 15:29:24;;;;;;;15.27;5.57;;;;;;;-3.44;59.21;100968.43;1688540;84;21199;-67
2020/12/06 15:31:52;;;;;;;12.97;6.07;;;;;;;-3.46;59.28;100967.56;1692263;84;21171;-69
2020/12/06 15:34:19;;;;;;;14.97;5.90;;;;;;;-3.46;59.47;100970.20;1672346;84;21586;-70
2020/12/06 15:36:48;;;;;;;13.27;6.27;;;;;;;-3.44;59.58;100974.13;1680431;84;21131;-68
2020/12/06 15:39:16;;;;;;;9.30;5.03;;;;;;;-3.47;59.49;100972.37;1701046;83;21576;-66
2020/12/06 15:41:43;;;;;;;10.63;5.47;;;;;;;-3.47;59.55;100968.43;1709733;83;21157;-67
2020/12/06 15:44:12;;;;;;;14.10;5.07;;;;;;;-3.47;59.51;100975.48;1704485;83;21678;-69
2020/12/06 15:46:39;;;;;;;12.17;5.00;;;;;;;-3.50;59.63;100960.98;1713351;83;21182;-68
2020/12/06 15:49:08;;;;;;;16.63;5.60;;;;;;;-3.52;59.73;100957.05;1725284;83;21328;-68
2020/12/06 15:51:36;;;;;;;9.00;4.40;;;;;;;-3.53;59.92;100963.19;1720069;83;21201;-67
2020/12/06 15:54:03;;;;;;;16.73;6.90;;;;;;;-3.53;60.11;100962.30;1696192;84;21320;-68
2020/12/06 15:56:31;;;;;;;9.77;5.33;;;;;;;-3.53;60.26;100964.51;1718266;83;21794;-70
2020/12/06 15:58:59;;;;;;;13.30;6.67;;;;;;;-3.54;60.38;100965.84;1696312;84;21194;-68
2020/12/06 16:01:26;;;;;;;10.03;4.93;;;;;;;-3.57;60.51;100965.41;1698407;83;21688;-68
2020/12/06 16:03:54;;;;;;;8.57;4.80;;;;;;;-3.56;60.71;100967.14;1715338;83;21208;-66
2020/12/06 16:06:22;;;;;;;13.93;6.07;;;;;;;-3.57;60.83;100970.67;1725087;83;21553;-71
2020/12/06 16:08:51;;;;;;;14.67;6.67;;;;;;;-3.57;61.02;100977.70;1718575;83;21201;-66
2020/12/06 16:11:22;;;;;;;12.70;5.70;;;;;;;-3.59;61.09;100965.86;1666996;86;21193;-68
2020/12/06 16:13:50;;;;;;;13.30;6.17;;;;;;;-3.59;61.32;100968.48;1670915;84;21202;-66
2020/12/06 16:16:18;;;;;;;15.80;5.97;;;;;;;-3.60;61.48;100975.09;1666488;86;21166;-67
2020/12/06 16:18:46;;;;;;;11.47;6.30;;;;;;;-3.61;61.68;100973.33;1696350;84;21158;-68
2020/12/06 16:21:14;;;;;;;14.17;6.23;;;;;;;-3.63;61.84;100975.98;1678490;85;21162;-66
2020/12/06 16:23:42;;;;;;;14.67;6.57;;;;;;;-3.64;62.13;100972.00;1716305;83;21166;-68
2020/12/06 16:26:10;;;;;;;12.90;6.60;;;;;;;-3.64;62.53;100972.00;1698811;83;22588;-67
2020/12/06 16:28:38;;;;;;;14.73;6.67;;;;;;;-3.66;62.89;100974.66;1690572;84;21361;-68
2020/12/06 16:31:06;;;;;;;13.47;6.10;;;;;;;-3.68;63.03;100974.22;1683341;83;21517;-69
2020/12/06 16:33:33;;;;;;;14.10;5.70;;;;;;;-3.70;62.87;100972.91;1718675;83;21154;-68
2020/12/06 16:36:01;;;;;;;12.03;6.30;;;;;;;-3.73;62.95;100972.91;1706046;83;21153;-68
2020/12/06 16:38:29;;;;;;;11.40;5.57;;;;;;;-3.75;62.99;100965.89;1710713;83;21667;-68
2020/12/06 16:40:58;;;;;;;17.50;5.93;;;;;;;-3.77;63.08;100967.22;1689169;84;21138;-68
2020/12/06 16:43:26;;;;;;;15.07;5.67;;;;;;;-3.80;63.08;100955.40;1725153;82;21149;-67
2020/12/06 16:45:53;;;;;;;11.73;5.73;;;;;;;-3.81;63.13;100961.53;1736446;82;21135;-67
2020/12/06 16:48:21;;;;;;;13.03;5.83;;;;;;;-3.81;63.05;100966.36;1753626;82;21171;-66
2020/12/06 16:50:50;;;;;;;11.87;6.33;;;;;;;-3.80;63.05;100960.66;1732491;82;21618;-68
2020/12/06 16:53:20;;;;;;;14.37;5.70;;;;;;;-3.78;63.06;100958.02;1742527;82;21167;-69
2020/12/06 16:55:48;;;;;;;12.97;5.33;;;;;;;-3.77;63.03;100963.70;1740246;82;21103;-69
2020/12/06 16:58:16;;;;;;;12.70;5.90;;;;;;;-3.78;63.04;100950.11;1742022;82;21177;-69
2020/12/06 17:00:44;;;;;;;13.90;5.63;;;;;;;-3.81;63.18;100959.78;1736698;81;21336;-68
2020/12/06 17:03:13;;;;;;;11.67;5.20;;;;;;;-3.86;63.39;100958.91;1741613;82;21330;-68
2020/12/06 17:05:43;;;;;;;16.57;5.67;;;;;;;-3.89;63.48;100963.31;1739364;82;21186;-68
2020/12/06 17:08:12;;;;;;;13.70;6.10;;;;;;;-3.90;63.57;100958.91;1734164;82;21780;-68
2020/12/06 17:10:41;;;;;;;13.13;5.60;;;;;;;-3.90;63.72;100958.91;1738964;82;21763;-69
2020/12/06 17:13:09;;;;;;;10.47;4.87;;;;;;;-3.91;63.89;100963.77;1712324;82;21167;-69
2020/12/06 17:15:36;;;;;;;9.60;4.90;;;;;;;-3.90;64.05;100962.44;1739339;82;21175;-70
2020/12/06 17:18:05;;;;;;;11.33;4.73;;;;;;;-3.88;64.17;100961.10;1742547;82;21253;-67
2020/12/06 17:20:33;;;;;;;12.57;5.47;;;;;;;-3.85;64.29;100958.04;1738992;82;21182;-69
2020/12/06 18:24:24;;;;;;;16.47;6.27;;;;;;;-3.60;65.87;100969.36;1823951;77;23056;-62
2020/12/06 18:26:54;;;;;;;14.57;6.33;;;;;;;-3.63;65.95;100965.87;1814730;78;21220;-63
2020/12/06 18:29:22;;;;;;;10.50;5.87;;;;;;;-3.61;65.91;100958.40;1828066;77;21605;-62
2020/12/06 18:31:51;;;;;;;11.80;5.93;;;;;;;-3.59;65.92;100965.86;1807657;78;21528;-61
2020/12/06 18:34:20;;;;;;;16.43;6.90;;;;;;;-3.58;65.87;100961.47;1762069;78;21553;-61
2020/12/06 18:36:53;;;;;;;11.53;5.90;;;;;;;-3.57;65.99;100954.87;1807625;78;21129;-65
2020/12/06 18:39:22;;;;;;;11.77;6.30;;;;;;;-3.56;65.97;100950.02;1816294;77;21608;-64
2020/12/06 18:41:52;;;;;;;13.50;6.27;;;;;;;-3.53;66.06;100959.67;1814506;78;21150;-66
2020/12/06 18:44:22;;;;;;;13.50;6.50;;;;;;;-3.51;66.09;100957.47;1807231;79;21157;-62
2020/12/06 18:46:51;;;;;;;15.27;6.73;;;;;;;-3.48;66.17;100960.54;1796317;77;21284;-58
2020/12/06 18:49:20;;;;;;;13.03;6.53;;;;;;;-3.45;66.18;100960.54;1785870;78;21581;-62
2020/12/06 18:51:52;;;;;;;12.67;6.60;;;;;;;-3.45;66.20;100957.91;1805024;79;21145;-62
2020/12/06 18:54:20;;;;;;;17.33;7.33;;;;;;;-3.44;66.34;100957.00;1798597;79;21145;-60
2020/12/06 18:56:48;;;;;;;13.57;6.77;;;;;;;-3.41;66.41;100960.95;1782717;80;21160;-61
2020/12/06 18:59:19;;;;;;;17.43;7.67;;;;;;;-3.40;66.37;100954.78;1812400;77;21159;-62
2020/12/06 19:01:48;;;;;;;15.73;8.03;;;;;;;-3.41;66.44;100953.93;1819309;78;21553;-62
2020/12/06 19:04:18;;;;;;;16.00;7.20;;;;;;;-3.42;66.57;100956.12;1812309;78;21119;-61
2020/12/06 19:06:48;;;;;;;14.77;7.63;;;;;;;-3.42;66.72;100957.88;1814485;78;21189;-61
2020/12/06 19:09:18;;;;;;;18.87;7.67;;;;;;;-3.41;66.78;100965.80;1821206;78;21130;-62
2020/12/06 19:11:46;;;;;;;19.43;8.07;;;;;;;-3.41;66.87;100956.56;1799179;79;21129;-62
2020/12/06 19:14:14;;;;;;;19.37;8.00;;;;;;;-3.40;67.00;100958.73;1787787;80;21315;-61
2020/12/06 19:16:49;;;;;;;17.60;8.60;;;;;;;-3.42;67.05;100957.44;1809323;78;21158;-62
2020/12/06 19:19:27;;;;;;;17.93;8.47;;;;;;;-3.37;67.19;100958.73;1765396;79;23106;-60
2020/12/06 19:21:56;;;;;;;14.23;8.07;;;;;;;-3.43;67.34;100969.31;1741133;82;21136;-62
2020/12/06 19:24:27;;;;;;;15.30;8.27;;;;;;;-3.43;67.41;100959.63;1735034;82;21641;-61
2020/12/06 19:26:59;;;;;;;16.10;7.30;;;;;;;-3.43;67.50;100960.09;1735491;82;21501;-60
2020/12/06 19:29:28;;;;;;;15.77;8.10;;;;;;;-3.42;67.58;100962.70;1748454;82;21585;-60
2020/12/06 19:31:56;;;;;;;15.60;8.30;;;;;;;-3.40;67.66;100961.38;1735136;82;21146;-60
2020/12/06 19:34:27;;;;;;;17.87;9.37;;;;;;;-3.41;67.71;100964.47;1700218;82;21154;-62
2020/12/06 19:36:58;;;;;;;15.97;8.20;;;;;;;-3.42;67.86;100967.09;1734120;82;21187;-60
2020/12/06 19:39:28;;;;;;;16.40;7.43;;;;;;;-3.42;67.97;100971.05;1710847;82;21701;-60
2020/12/06 19:41:58;;;;;;;16.17;8.67;;;;;;;-3.41;68.10;100972.81;1737717;82;21159;-61
2020/12/06 19:44:26;;;;;;;19.30;8.73;;;;;;;-3.40;68.20;100970.16;1731895;82;21538;-59
2020/12/06 19:46:55;;;;;;;18.23;8.70;;;;;;;-3.39;68.26;100971.05;1726801;82;21147;-61
2020/12/06 19:49:23;;;;;;;16.17;8.80;;;;;;;-3.39;68.33;100973.25;1730832;82;21170;-60
2020/12/06 19:51:51;;;;;;;18.10;8.60;;;;;;;-3.42;68.44;100970.61;1730867;82;21671;-60
2020/12/06 19:54:22;;;;;;;18.53;9.33;;;;;;;-3.44;68.61;100972.38;1724174;82;21163;-60
2020/12/06 19:56:50;;;;;;;20.73;9.80;;;;;;;-3.45;68.70;100979.84;1731906;82;21174;-60
2020/12/06 19:59:18;;;;;;;16.47;8.77;;;;;;;-3.44;68.83;100968.43;1745355;82;21175;-58
2020/12/06 20:01:47;;;;;;;17.47;8.93;;;;;;;-3.40;68.89;100972.80;1726874;82;21186;-60
2020/12/06 20:04:15;;;;;;;17.47;9.10;;;;;;;-3.41;68.80;100968.43;1738124;82;21244;-60
2020/12/06 20:06:45;;;;;;;19.80;9.83;;;;;;;-3.44;68.90;100965.80;1718708;82;21155;-60
2020/12/06 20:09:13;;;;;;;18.47;9.30;;;;;;;-3.46;69.02;100970.62;1734560;82;21642;-59
2020/12/06 20:11:42;;;;;;;17.73;9.37;;;;;;;-3.50;69.18;100967.14;1701056;83;21147;-60
2020/12/06 20:14:12;;;;;;;21.77;11.10;;;;;;;-3.51;69.29;100961.85;1725661;82;21151;-59
2020/12/06 20:16:41;;;;;;;18.10;9.10;;;;;;;-3.53;69.31;100964.51;1741498;82;21150;-58
2020/12/06 20:19:12;;;;;;;18.67;8.47;;;;;;;-3.57;69.45;100957.50;1737869;80;21562;-59
2020/12/06 20:21:40;;;;;;;20.53;9.47;;;;;;;-3.61;69.57;100963.67;1742025;82;21143;-60
2020/12/06 20:24:11;;;;;;;16.17;8.40;;;;;;;-3.64;69.75;100957.08;1746284;82;21171;-60
2020/12/06 20:26:40;;;;;;;21.90;10.30;;;;;;;-3.65;69.88;100963.25;1744838;81;21147;-60
2020/12/06 20:29:11;;;;;;;20.40;10.33;;;;;;;-3.69;70.02;100965.43;1736476;82;22232;-60
2020/12/06 20:31:44;;;;;;;20.67;10.20;;;;;;;-3.70;70.20;100963.70;1723762;82;21617;-59
2020/12/06 20:34:13;;;;;;;21.25;10.28;;;;;;;-3.70;70.26;100970.72;1724349;82;21195;-60
2020/12/06 20:36:45;;;;;;;21.53;9.53;;;;;;;-3.73;70.36;100958.89;1731652;82;21192;-60
2020/12/06 20:39:14;;;;;;;19.13;8.20;;;;;;;-3.73;70.45;100966.33;1723742;82;21143;-60
2020/12/06 20:41:49;;;;;;;18.43;9.70;;;;;;;-3.74;70.60;100959.32;1730938;82;21150;-60
2020/12/06 20:44:25;;;;;;;17.97;9.87;;;;;;;-3.75;70.61;100954.03;1743151;81;21784;-59
2020/12/06 20:46:56;;;;;;;16.03;8.60;;;;;;;-3.81;70.74;100951.00;1734643;82;21241;-60
2020/12/06 20:49:29;;;;;;;19.67;10.17;;;;;;;-3.84;70.83;100951.87;1698237;82;21159;-60
2020/12/06 20:52:03;;;;;;;19.52;8.75;;;;;;;-3.89;70.94;100956.27;1709707;82;21167;-60
2020/12/06 20:54:32;;;;;;;18.30;9.23;;;;;;;-3.90;71.08;100954.97;1729886;82;21174;-61
2020/12/06 20:57:03;;;;;;;19.23;9.93;;;;;;;-3.93;71.22;100951.01;1739072;82;21183;-64
2020/12/06 20:59:32;;;;;;;16.73;9.27;;;;;;;-3.97;71.40;100955.85;1684579;85;21633;-60
2020/12/06 21:02:02;;;;;;;18.97;9.60;;;;;;;-4.03;71.61;100954.55;1730519;82;21744;-61
2020/12/06 21:04:31;;;;;;;16.97;9.07;;;;;;;-4.05;71.81;100959.84;1730902;82;21522;-60
2020/12/06 21:06:59;;;;;;;19.17;9.20;;;;;;;-4.05;71.94;100954.57;1737952;82;21191;-59
2020/12/06 21:09:29;;;;;;;20.30;8.57;;;;;;;-4.06;72.00;100955.44;1733337;82;21657;-60
2020/12/06 21:11:58;;;;;;;20.87;9.77;;;;;;;-4.07;72.09;100960.28;1741716;82;21561;-61
2020/12/06 21:14:26;;;;;;;22.30;9.60;;;;;;;-4.10;72.29;100962.02;1743560;82;21138;-59
2020/12/06 21:16:57;;;;;;;16.53;8.00;;;;;;;-4.17;72.35;100959.84;1678421;84;21198;-60
2020/12/06 21:19:26;;;;;;;19.00;9.27;;;;;;;-4.21;72.61;100959.84;1729111;82;21132;-61
2020/12/06 21:21:54;;;;;;;15.27;7.70;;;;;;;-4.28;72.78;100963.39;1719182;82;21186;-60
2020/12/06 21:24:23;;;;;;;20.07;9.40;;;;;;;-4.35;72.99;100951.10;1721675;82;21152;-61
2020/12/06 21:26:51;;;;;;;20.07;9.83;;;;;;;-4.37;73.22;100955.49;1716184;82;21313;-60
2020/12/06 21:29:19;;;;;;;17.33;9.43;;;;;;;-4.38;73.26;100969.51;1725365;81;21622;-61
2020/12/06 21:31:55;;;;;;;19.33;10.13;;;;;;;-4.38;73.43;100959.88;1716261;82;21452;-60
2020/12/06 21:34:23;;;;;;;21.77;9.93;;;;;;;-4.36;73.47;100965.13;1726083;82;21181;-61
2020/12/06 21:36:51;;;;;;;18.93;9.50;;;;;;;-4.34;73.53;100958.98;1643838;84;21736;-59
2020/12/06 21:39:20;;;;;;;17.97;8.57;;;;;;;-4.32;73.50;100966.44;1712628;82;21582;-60
2020/12/06 21:41:48;;;;;;;18.13;8.93;;;;;;;-4.34;73.53;100969.51;1716587;82;21191;-60
2020/12/06 21:44:16;;;;;;;18.77;9.63;;;;;;;-4.38;73.45;100980.92;1694021;82;21585;-60
2020/12/06 21:46:46;;;;;;;17.83;9.50;;;;;;;-4.47;73.52;100983.98;1718231;82;21143;-59
2020/12/06 21:49:14;;;;;;;19.87;9.13;;;;;;;-4.56;73.63;100988.80;1731289;82;21305;-60
2020/12/06 21:51:44;;;;;;;16.60;8.70;;;;;;;-4.63;73.83;100978.71;1719088;82;21396;-60
2020/12/06 21:54:12;;;;;;;21.80;10.37;;;;;;;-4.69;74.01;100979.14;1714417;82;21274;-60
2020/12/06 21:56:40;;;;;;;18.60;9.20;;;;;;;-4.73;74.10;100982.22;1712597;82;21143;-60
2020/12/06 21:59:08;;;;;;;19.87;8.93;;;;;;;-4.73;74.24;100973.02;1710282;82;21543;-59
2020/12/06 22:01:37;;;;;;;25.40;9.47;;;;;;;-4.72;74.13;100972.13;1719901;82;21186;-60
2020/12/06 22:04:06;;;;;;;17.00;9.13;;;;;;;-4.75;73.87;100965.56;1719681;82;21180;-60
2020/12/06 22:06:33;;;;;;;19.70;8.93;;;;;;;-4.80;73.75;100968.62;1720862;82;21140;-60
2020/12/06 22:09:01;;;;;;;19.13;9.57;;;;;;;-4.83;73.70;100969.06;1732120;82;21191;-60
2020/12/06 22:11:35;;;;;;;19.27;9.60;;;;;;;-4.85;73.58;100963.78;1719123;82;21335;-59
2020/12/06 22:14:04;;;;;;;15.37;7.77;;;;;;;-4.87;73.58;100966.84;1726751;82;21293;-62
2020/12/06 22:16:33;;;;;;;17.37;8.43;;;;;;;-4.88;73.66;100965.11;1721710;82;21325;-60
2020/12/06 22:19:01;;;;;;;21.73;8.70;;;;;;;-4.90;73.63;100970.81;1734683;82;21704;-59
2020/12/06 22:21:29;;;;;;;15.23;7.97;;;;;;;-4.93;73.73;100979.11;1733136;82;21139;-58
2020/12/06 22:23:57;;;;;;;16.77;7.13;;;;;;;-4.97;73.76;100970.78;1726248;82;21159;-59
2020/12/06 22:26:25;;;;;;;15.07;6.87;;;;;;;-5.06;73.93;100967.70;1738127;82;21194;-59
2020/12/06 22:28:53;;;;;;;17.73;7.67;;;;;;;-5.11;74.17;100965.48;1734012;82;21460;-59
2020/12/06 22:31:21;;;;;;;14.17;6.00;;;;;;;-5.14;74.36;100969.44;1735930;82;21341;-59
2020/12/06 22:33:50;;;;;;;15.23;7.60;;;;;;;-5.16;74.34;100961.99;1741646;82;21154;-62
2020/12/06 22:36:20;;;;;;;20.00;8.40;;;;;;;-5.21;74.33;100967.66;1732270;82;21195;-60
2020/12/06 22:38:49;;;;;;;20.87;8.73;;;;;;;-5.25;74.30;100968.53;1739322;82;21163;-60
2020/12/06 22:41:17;;;;;;;16.80;8.00;;;;;;;-5.28;74.32;100957.11;1738646;82;21190;-60
2020/12/06 22:43:46;;;;;;;19.40;8.87;;;;;;;-5.31;74.39;100966.74;1738951;82;21198;-62
2020/12/06 22:46:16;;;;;;;21.10;10.67;;;;;;;-5.35;74.29;100966.30;1740922;82;21692;-62
2020/12/06 22:48:45;;;;;;;20.50;9.23;;;;;;;-5.40;74.29;100975.94;1740246;82;21384;-62
2020/12/06 22:51:16;;;;;;;16.70;8.23;;;;;;;-5.43;74.31;100968.45;1738397;82;21344;-63
